Time;durP1;ratioP1;P1;durP2;ratioP2;P2;SDS_P1;SDS_P2;PMS_P1;PMS_P2;Temp;Humidity;BMP_temperature;BMP_pressure;BME280_temperature;BME280_humidity;BME280_pressure;Samples;Min_cycle;Max_cycle;Signal;HPM_P1;HPM_P2
2023/03/09 00:01:33;;;;;;;0.50;0.30;;;10.80;99.90;;;;;;5095413;28;20889;-44
2023/03/09 00:04:01;;;;;;;0.40;0.28;;;10.80;99.90;;;;;;5095153;28;20845;-43
2023/03/09 00:06:29;;;;;;;1.20;0.30;;;10.80;99.90;;;;;;5094985;28;20508;-45
2023/03/09 00:08:56;;;;;;;0.60;0.30;;;10.70;99.90;;;;;;5094243;28;20993;-45
2023/03/09 00:11:24;;;;;;;0.90;0.30;;;10.70;99.90;;;;;;5092379;28;20481;-44
2023/03/09 00:13:53;;;;;;;0.60;0.30;;;10.70;99.90;;;;;;5093543;28;20429;-47
2023/03/09 00:16:23;;;;;;;1.00;0.30;;;10.70;99.90;;;;;;5093569;28;20421;-43
2023/03/09 00:18:53;;;;;;;1.60;0.30;;;10.80;99.90;;;;;;5093513;28;20429;-44
2023/03/09 00:21:36;;;;;;;0.60;0.30;;;10.80;99.90;;;;;;5094966;28;20460;-44
2023/03/09 00:24:04;;;;;;;0.55;0.30;;;10.80;99.90;;;;;;5093806;28;20768;-45
2023/03/09 00:26:31;;;;;;;0.70;0.30;;;10.80;99.90;;;;;;5094317;28;20424;-44
2023/03/09 00:29:00;;;;;;;0.90;0.70;;;10.80;99.90;;;;;;5093503;28;20448;-44
2023/03/09 00:31:27;;;;;;;0.60;0.20;;;10.90;99.90;;;;;;5094482;28;20413;-46
2023/03/09 00:33:54;;;;;;;1.00;0.30;;;11.00;99.90;;;;;;5094770;28;20516;-45
2023/03/09 00:36:21;;;;;;;0.45;0.20;;;11.10;99.90;;;;;;5095233;28;20417;-42
2023/03/09 00:38:52;;;;;;;0.60;0.30;;;11.10;99.90;;;;;;5093438;28;20725;-43
2023/03/09 00:41:19;;;;;;;1.15;0.20;;;11.10;99.90;;;;;;5093787;28;20675;-44
2023/03/09 00:43:46;;;;;;;0.82;0.20;;;11.00;99.90;;;;;;5094042;28;20430;-46
2023/03/09 00:46:15;;;;;;;1.90;0.30;;;11.10;99.90;;;;;;5094591;28;20845;-45
2023/03/09 00:48:43;;;;;;;0.40;0.20;;;11.00;99.90;;;;;;5094513;28;20434;-44
2023/03/09 00:51:11;;;;;;;0.43;0.20;;;11.00;99.90;;;;;;5094666;28;20508;-45
2023/03/09 00:53:39;;;;;;;0.50;0.20;;;11.00;99.90;;;;;;5093602;28;20687;-47
2023/03/09 00:56:08;;;;;;;0.60;0.20;;;11.00;99.90;;;;;;5094166;28;20418;-43
2023/03/09 00:58:35;;;;;;;0.80;0.10;;;10.90;99.90;;;;;;5094577;28;20416;-43
2023/03/09 01:01:08;;;;;;;0.32;0.13;;;10.90;99.90;;;;;;5093859;28;20570;-43
2023/03/09 01:03:37;;;;;;;0.40;0.10;;;10.90;99.90;;;;;;5093794;28;20426;-45
2023/03/09 01:06:04;;;;;;;0.30;0.10;;;10.90;99.90;;;;;;5093094;28;20414;-44
2023/03/09 01:08:31;;;;;;;0.30;0.10;;;11.00;99.90;;;;;;5094448;28;20465;-45
2023/03/09 01:10:59;;;;;;;0.30;0.10;;;10.80;99.90;;;;;;5093698;28;20437;-46
2023/03/09 01:13:26;;;;;;;0.60;0.10;;;10.80;99.90;;;;;;5093874;28;20434;-44
2023/03/09 01:15:53;;;;;;;0.30;0.10;;;10.70;99.90;;;;;;5091023;28;20421;-47
2023/03/09 01:18:20;;;;;;;0.30;0.10;;;10.80;99.90;;;;;;5091466;28;20493;-46
2023/03/09 01:20:48;;;;;;;0.40;0.10;;;10.70;99.90;;;;;;5090351;28;20425;-43
2023/03/09 01:23:15;;;;;;;0.30;0.10;;;10.60;99.90;;;;;;5090313;28;20409;-44
2023/03/09 01:25:42;;;;;;;0.40;0.10;;;10.60;99.90;;;;;;5091037;28;20409;-43
2023/03/09 01:28:10;;;;;;;0.30;0.10;;;10.60;99.90;;;;;;5091978;28;20722;-45
2023/03/09 01:30:38;;;;;;;0.30;0.10;;;10.50;99.90;;;;;;5092990;28;20733;-49
2023/03/09 01:33:05;;;;;;;0.50;0.10;;;10.50;99.90;;;;;;5094063;28;20418;-47
2023/03/09 01:35:32;;;;;;;0.30;0.10;;;10.50;99.90;;;;;;5093485;28;20421;-46
2023/03/09 01:38:00;;;;;;;0.30;0.10;;;10.50;99.90;;;;;;5095076;28;20418;-44
2023/03/09 01:40:28;;;;;;;0.30;0.10;;;10.50;99.90;;;;;;5096828;28;20437;-45
2023/03/09 01:42:57;;;;;;;0.80;0.10;;;10.40;99.90;;;;;;5097729;28;20420;-45
2023/03/09 01:45:57;;;;;;;0.40;0.10;;;10.40;99.90;;;;;;5097819;28;20871;-46
2023/03/09 01:48:24;;;;;;;0.30;0.10;;;10.30;99.90;;;;;;5063557;28;20414;-45
2023/03/09 01:50:51;;;;;;;0.40;0.10;;;10.30;99.90;;;;;;5098005;28;20417;-48
2023/03/09 01:53:19;;;;;;;0.30;0.10;;;10.30;99.90;;;;;;5098089;28;20497;-46
2023/03/09 01:55:50;;;;;;;0.40;0.10;;;10.30;99.90;;;;;;5097581;28;20413;-47
2023/03/09 01:58:23;;;;;;;0.30;0.10;;;10.20;99.90;;;;;;5098186;28;20417;-49
2023/03/09 02:00:53;;;;;;;0.30;0.10;;;10.20;99.90;;;;;;5098152;28;20433;-45
2023/03/09 02:03:24;;;;;;;0.50;0.10;;;10.10;99.90;;;;;;5097549;28;20837;-47
2023/03/09 02:05:55;;;;;;;0.30;0.10;;;10.10;99.90;;;;;;5097599;28;20714;-46
2023/03/09 02:08:25;;;;;;;0.30;0.10;;;10.10;99.90;;;;;;5097496;28;20456;-47
2023/03/09 02:10:57;;;;;;;0.30;0.10;;;10.10;99.90;;;;;;5098184;28;20505;-47
2023/03/09 02:13:30;;;;;;;1.23;0.10;;;10.20;99.90;;;;;;5095729;28;20414;-44
2023/03/09 02:15:57;;;;;;;0.30;0.10;;;10.10;99.90;;;;;;5095188;28;20652;-46
2023/03/09 02:18:25;;;;;;;0.30;0.10;;;10.00;99.90;;;;;;5096499;28;20418;-49
2023/03/09 02:21:00;;;;;;;0.30;0.10;;;10.00;99.90;;;;;;5096582;28;20487;-43
2023/03/09 02:23:34;;;;;;;0.30;0.10;;;10.00;99.90;;;;;;5097750;28;20422;-44
2023/03/09 02:26:08;;;;;;;0.30;0.10;;;10.10;99.90;;;;;;5097377;28;20417;-45
2023/03/09 02:28:37;;;;;;;0.30;0.10;;;9.90;99.90;;;;;;5096853;28;20857;-44
2023/03/09 02:31:05;;;;;;;0.30;0.10;;;9.90;99.90;;;;;;5096735;28;20414;-48
2023/03/09 02:33:32;;;;;;;0.40;0.10;;;9.90;99.90;;;;;;5097270;28;20694;-44
2023/03/09 02:36:01;;;;;;;0.30;0.10;;;9.90;99.90;;;;;;5096601;28;20414;-45
2023/03/09 02:38:28;;;;;;;0.40;0.10;;;9.90;99.90;;;;;;5095186;28;20426;-45
2023/03/09 02:40:58;;;;;;;0.30;0.10;;;9.90;99.90;;;;;;5095355;28;20460;-49
2023/03/09 02:43:30;;;;;;;0.30;0.10;;;9.80;99.90;;;;;;5096245;28;20429;-45
2023/03/09 02:45:59;;;;;;;0.40;0.10;;;9.90;99.90;;;;;;5095767;28;20414;-45
2023/03/09 02:48:26;;;;;;;0.40;0.10;;;9.80;99.90;;;;;;5096317;28;20429;-49
2023/03/09 02:50:53;;;;;;;0.50;0.10;;;9.80;99.90;;;;;;5096493;28;20425;-47
2023/03/09 02:53:20;;;;;;;0.30;0.10;;;9.80;99.90;;;;;;5095458;28;20741;-49
2023/03/09 02:55:47;;;;;;;0.30;0.10;;;9.80;99.90;;;;;;5096827;28;20413;-48
2023/03/09 02:58:14;;;;;;;0.30;0.10;;;9.90;99.90;;;;;;5097163;28;20414;-52
2023/03/09 03:00:41;;;;;;;0.30;0.10;;;10.00;99.90;;;;;;5096468;28;20421;-49
2023/03/09 03:03:10;;;;;;;0.88;0.10;;;10.10;99.90;;;;;;5096992;28;20422;-47
2023/03/09 03:05:37;;;;;;;0.30;0.10;;;10.10;99.90;;;;;;5096986;28;20471;-49
2023/03/09 03:08:04;;;;;;;0.40;0.10;;;10.10;99.90;;;;;;5095854;28;20414;-49
2023/03/09 03:10:31;;;;;;;0.30;0.10;;;10.10;99.90;;;;;;5096145;28;20425;-45
2023/03/09 03:12:59;;;;;;;0.30;0.10;;;10.20;99.90;;;;;;5096240;28;20418;-51
2023/03/09 03:15:26;;;;;;;0.30;0.10;;;10.30;99.90;;;;;;5096542;28;20434;-46
2023/03/09 03:17:53;;;;;;;0.30;0.10;;;10.30;99.90;;;;;;5096528;28;20425;-44
2023/03/09 03:20:21;;;;;;;0.40;0.10;;;10.20;99.90;;;;;;5096295;28;20433;-44
2023/03/09 03:22:49;;;;;;;0.30;0.10;;;10.20;99.90;;;;;;5096416;28;20426;-44
2023/03/09 03:25:16;;;;;;;0.40;0.10;;;10.20;99.90;;;;;;5096009;28;20426;-45
2023/03/09 03:27:44;;;;;;;0.30;0.10;;;10.20;99.90;;;;;;5095678;28;20467;-44
2023/03/09 03:30:13;;;;;;;0.40;0.10;;;10.30;99.90;;;;;;5095841;28;20446;-44
2023/03/09 03:32:40;;;;;;;0.40;0.10;;;10.30;99.90;;;;;;5096010;28;20818;-43
2023/03/09 03:35:08;;;;;;;0.30;0.10;;;10.40;99.90;;;;;;5096527;28;20871;-50
2023/03/09 03:37:37;;;;;;;0.30;0.10;;;10.40;99.90;;;;;;5096156;28;20725;-47
2023/03/09 03:40:08;;;;;;;0.30;0.10;;;10.50;99.90;;;;;;5095094;28;20430;-46
2023/03/09 03:42:35;;;;;;;0.30;0.10;;;10.40;99.90;;;;;;5096333;28;20414;-49
2023/03/09 03:45:03;;;;;;;0.30;0.10;;;10.30;99.90;;;;;;5095683;28;20841;-47
2023/03/09 03:47:30;;;;;;;0.30;0.10;;;10.30;99.90;;;;;;5095657;28;20450;-46
2023/03/09 03:49:57;;;;;;;0.30;0.10;;;10.10;99.90;;;;;;5095882;28;20455;-47
2023/03/09 03:52:24;;;;;;;0.40;0.10;;;10.20;99.90;;;;;;5096141;28;20511;-49
2023/03/09 03:54:53;;;;;;;0.32;0.10;;;10.20;99.90;;;;;;5095158;28;20430;-50
2023/03/09 03:57:23;;;;;;;0.30;0.10;;;10.10;99.90;;;;;;5095470;28;20418;-46
2023/03/09 03:59:51;;;;;;;0.30;0.10;;;10.10;99.90;;;;;;5095819;28;20433;-50
2023/03/09 04:02:18;;;;;;;0.93;0.10;;;10.10;99.90;;;;;;5095067;28;20437;-47
2023/03/09 04:04:45;;;;;;;0.40;0.10;;;10.10;99.90;;;;;;5095805;28;20492;-49
2023/03/09 04:07:12;;;;;;;0.45;0.10;;;10.10;99.90;;;;;;5095600;28;20405;-44
2023/03/09 04:09:39;;;;;;;0.60;0.20;;;10.10;99.90;;;;;;5095615;28;20425;-45
2023/03/09 04:12:09;;;;;;;0.50;0.20;;;10.00;99.90;;;;;;5095176;28;20410;-44
2023/03/09 04:14:37;;;;;;;0.40;0.10;;;10.10;99.90;;;;;;5094215;28;20857;-49
2023/03/09 04:17:05;;;;;;;0.40;0.20;;;10.10;99.90;;;;;;5093739;28;20744;-50
2023/03/09 04:19:32;;;;;;;0.70;0.10;;;10.00;99.90;;;;;;5094236;28;20423;-51
2023/03/09 04:21:59;;;;;;;0.90;0.20;;;10.00;99.90;;;;;;5093520;28;20845;-44
2023/03/09 04:24:26;;;;;;;0.80;0.20;;;10.00;99.90;;;;;;5093601;28;20430;-49
2023/03/09 04:26:53;;;;;;;0.60;0.20;;;10.00;99.90;;;;;;5093143;28;20444;-47
2023/03/09 04:29:22;;;;;;;0.80;0.20;;;10.00;99.90;;;;;;5094215;28;20429;-50
2023/03/09 04:31:49;;;;;;;1.50;0.20;;;10.10;99.90;;;;;;5094149;28;20421;-46
2023/03/09 04:34:16;;;;;;;0.85;0.22;;;10.10;99.90;;;;;;5095056;28;20465;-47
2023/03/09 04:36:43;;;;;;;0.80;0.20;;;10.10;99.90;;;;;;5094873;28;20424;-46
2023/03/09 04:39:10;;;;;;;1.10;0.30;;;10.10;99.90;;;;;;5095094;28;20710;-45
2023/03/09 04:41:38;;;;;;;0.63;0.23;;;10.10;99.90;;;;;;5094744;28;20437;-44
2023/03/09 04:44:05;;;;;;;0.85;0.20;;;10.10;99.90;;;;;;5095047;28;20429;-47
2023/03/09 04:46:33;;;;;;;1.88;0.30;;;10.00;99.90;;;;;;5094491;28;20426;-50
2023/03/09 04:49:00;;;;;;;1.20;0.30;;;10.00;99.90;;;;;;5093948;28;20432;-48
2023/03/09 04:51:29;;;;;;;0.80;0.30;;;10.00;99.90;;;;;;5093719;28;20413;-45
2023/03/09 04:53:56;;;;;;;1.50;0.30;;;10.00;99.90;;;;;;5093176;28;20901;-48
2023/03/09 04:56:23;;;;;;;1.02;0.30;;;9.90;99.90;;;;;;5092134;28;20688;-45
2023/03/09 04:58:50;;;;;;;1.30;0.40;;;9.90;99.90;;;;;;5092827;28;20428;-44
2023/03/09 05:01:18;;;;;;;0.60;0.30;;;10.00;99.90;;;;;;5091083;28;20430;-50
2023/03/09 05:03:46;;;;;;;2.70;0.40;;;10.10;99.90;;;;;;5093301;28;20496;-50
2023/03/09 05:06:14;;;;;;;0.90;0.30;;;10.00;99.90;;;;;;5092998;28;20428;-50
2023/03/09 05:08:41;;;;;;;1.00;0.30;;;10.00;99.90;;;;;;5094278;28;20434;-52
2023/03/09 05:11:08;;;;;;;0.98;0.30;;;10.00;99.90;;;;;;5093813;28;20402;-45
2023/03/09 05:13:35;;;;;;;0.50;0.20;;;10.10;99.90;;;;;;5096454;28;20421;-49
2023/03/09 05:16:07;;;;;;;2.28;0.40;;;10.10;99.90;;;;;;5098506;28;20417;-47
2023/03/09 05:18:34;;;;;;;0.93;0.30;;;10.10;99.90;;;;;;5098520;28;20430;-47
2023/03/09 05:21:08;;;;;;;0.60;0.30;;;10.10;99.90;;;;;;5098775;28;20506;-48
2023/03/09 05:23:35;;;;;;;1.25;0.30;;;10.20;99.90;;;;;;5098066;28;20456;-46
2023/03/09 05:26:07;;;;;;;1.15;0.30;;;10.20;99.90;;;;;;5098612;28;20418;-47
2023/03/09 05:28:34;;;;;;;1.70;0.40;;;10.30;99.90;;;;;;5098705;28;20527;-48
2023/03/09 05:31:01;;;;;;;1.80;0.30;;;10.30;99.90;;;;;;5098395;28;20420;-51
2023/03/09 05:33:28;;;;;;;1.10;0.40;;;10.20;99.90;;;;;;5098757;28;20487;-47
2023/03/09 05:35:56;;;;;;;1.48;0.30;;;10.10;99.90;;;;;;5098289;28;20422;-51
2023/03/09 05:38:24;;;;;;;1.20;0.30;;;10.10;99.90;;;;;;5098650;28;20432;-50
2023/03/09 05:40:51;;;;;;;2.30;0.30;;;10.10;99.90;;;;;;5098070;28;20430;-45
2023/03/09 05:43:18;;;;;;;1.30;0.30;;;10.10;99.90;;;;;;5098293;28;20409;-47
2023/03/09 05:45:53;;;;;;;1.30;0.20;;;10.20;99.90;;;;;;5098109;28;20416;-48
2023/03/09 05:48:20;;;;;;;1.48;0.30;;;10.20;99.90;;;;;;5097888;28;20818;-48
2023/03/09 05:50:48;;;;;;;1.27;0.30;;;10.20;99.90;;;;;;5098378;28;20830;-49
2023/03/09 05:53:15;;;;;;;0.90;0.40;;;10.20;99.90;;;;;;5097613;28;20418;-49
2023/03/09 05:55:43;;;;;;;1.30;0.30;;;10.20;99.90;;;;;;5096583;28;20418;-48
2023/03/09 05:58:10;;;;;;;1.00;0.30;;;10.10;99.90;;;;;;5097524;28;20441;-47
2023/03/09 06:00:37;;;;;;;1.00;0.40;;;10.10;99.90;;;;;;5095173;28;20440;-49
2023/03/09 06:03:04;;;;;;;1.50;0.40;;;10.20;99.90;;;;;;5096012;28;20421;-48
2023/03/09 06:05:31;;;;;;;1.30;0.38;;;10.20;99.90;;;;;;5096399;28;20417;-47
2023/03/09 06:07:58;;;;;;;1.35;0.40;;;10.20;99.90;;;;;;5096377;28;20418;-48
2023/03/09 06:10:25;;;;;;;1.75;0.40;;;10.10;99.90;;;;;;5096045;28;20437;-50
2023/03/09 06:12:54;;;;;;;1.50;0.40;;;10.10;99.90;;;;;;5094359;28;20888;-48
2023/03/09 06:15:21;;;;;;;1.40;0.40;;;10.10;99.90;;;;;;5094357;28;20473;-46
2023/03/09 06:17:48;;;;;;;1.60;0.30;;;10.00;99.90;;;;;;5095000;28;20424;-47
2023/03/09 06:20:16;;;;;;;1.53;0.40;;;10.00;99.90;;;;;;5094400;28;20558;-47
2023/03/09 06:22:44;;;;;;;2.80;0.90;;;9.90;99.90;;;;;;5093407;28;20430;-51
2023/03/09 06:25:11;;;;;;;0.80;0.40;;;9.90;99.90;;;;;;5093382;28;20572;-48
2023/03/09 06:27:39;;;;;;;0.75;0.20;;;10.00;99.90;;;;;;5094151;28;20542;-48
2023/03/09 06:30:12;;;;;;;3.15;0.40;;;10.00;99.90;;;;;;5095799;28;20432;-45
2023/03/09 06:32:39;;;;;;;0.83;0.30;;;10.00;99.90;;;;;;5092801;28;20827;-48
2023/03/09 06:35:07;;;;;;;1.10;0.40;;;10.00;99.90;;;;;;5093490;28;20425;-46
2023/03/09 06:37:34;;;;;;;1.90;0.50;;;10.00;99.90;;;;;;5094485;28;20421;-49
2023/03/09 06:40:04;;;;;;;1.35;0.40;;;10.00;99.90;;;;;;5093848;28;20695;-52
2023/03/09 06:42:31;;;;;;;1.80;0.40;;;10.00;99.90;;;;;;5094124;28;20456;-49
2023/03/09 06:44:58;;;;;;;0.80;0.30;;;10.00;99.90;;;;;;5091391;28;20422;-49
2023/03/09 06:47:27;;;;;;;0.80;0.30;;;10.00;99.90;;;;;;5091779;28;20821;-46
2023/03/09 06:49:54;;;;;;;2.03;0.40;;;10.00;99.90;;;;;;5092477;28;20433;-50
2023/03/09 06:52:22;;;;;;;1.67;0.30;;;10.10;99.90;;;;;;5092283;28;20414;-52
2023/03/09 06:54:49;;;;;;;1.40;0.40;;;10.10;99.90;;;;;;5094912;28;20472;-47
2023/03/09 06:57:17;;;;;;;2.00;0.40;;;10.00;99.90;;;;;;5086055;28;20444;-51
2023/03/09 06:59:44;;;;;;;2.20;0.70;;;10.00;99.90;;;;;;5081672;28;20737;-48
2023/03/09 07:02:13;;;;;;;1.13;0.40;;;10.00;99.90;;;;;;5088351;28;20495;-48
2023/03/09 07:04:42;;;;;;;2.00;0.40;;;10.00;99.90;;;;;;5082744;28;20433;-51
2023/03/09 07:07:09;;;;;;;1.70;0.35;;;10.30;99.90;;;;;;5090404;28;20425;-51
2023/03/09 07:09:36;;;;;;;0.90;0.40;;;10.30;99.90;;;;;;5092214;28;20729;-49
2023/03/09 07:12:04;;;;;;;0.80;0.30;;;10.30;99.90;;;;;;5090486;28;20414;-47
2023/03/09 07:14:31;;;;;;;0.97;0.30;;;10.30;99.90;;;;;;5078999;28;20512;-45
2023/03/09 07:16:58;;;;;;;1.00;0.40;;;10.30;99.90;;;;;;5081381;28;20526;-45
2023/03/09 07:19:25;;;;;;;1.73;0.47;;;10.40;99.90;;;;;;5082745;28;20433;-48
2023/03/09 07:21:54;;;;;;;2.22;0.50;;;10.40;99.90;;;;;;5074728;28;20859;-49
2023/03/09 07:24:21;;;;;;;1.08;0.40;;;10.60;99.90;;;;;;5086070;28;20423;-44
2023/03/09 07:26:49;;;;;;;1.08;0.30;;;10.80;99.90;;;;;;5079080;28;20895;-48
2023/03/09 07:29:16;;;;;;;0.80;0.30;;;10.90;99.90;;;;;;5080898;28;20424;-45
2023/03/09 07:31:43;;;;;;;0.70;0.30;;;10.90;99.90;;;;;;5089424;28;20417;-46
2023/03/09 07:34:10;;;;;;;0.90;0.30;;;10.90;99.90;;;;;;5074644;28;20425;-47
2023/03/09 07:36:37;;;;;;;0.77;0.30;;;10.90;99.90;;;;;;5084326;28;20432;-47
2023/03/09 07:39:06;;;;;;;0.90;0.25;;;11.00;99.90;;;;;;5081124;28;20876;-47
2023/03/09 07:41:33;;;;;;;0.80;0.30;;;11.10;99.90;;;;;;5078874;28;20423;-46
2023/03/09 07:44:00;;;;;;;0.70;0.30;;;11.30;99.90;;;;;;5088804;28;20426;-44
2023/03/09 07:46:27;;;;;;;1.80;0.30;;;11.40;99.90;;;;;;5076853;28;20436;-46
2023/03/09 07:48:54;;;;;;;1.10;0.28;;;11.40;99.90;;;;;;5092171;28;20745;-53
2023/03/09 07:51:23;;;;;;;2.00;0.30;;;11.40;99.90;;;;;;5080977;28;20832;-50
2023/03/09 07:53:50;;;;;;;1.00;0.30;;;11.40;99.90;;;;;;5089836;28;20738;-53
2023/03/09 07:56:19;;;;;;;1.20;0.50;;;11.50;99.90;;;;;;5083844;28;20488;-52
2023/03/09 07:58:46;;;;;;;0.80;0.30;;;11.60;99.90;;;;;;5084740;28;20431;-52
2023/03/09 08:01:16;;;;;;;0.90;0.30;;;11.70;99.90;;;;;;5082834;28;20429;-51
2023/03/09 08:03:43;;;;;;;0.70;0.30;;;11.90;99.90;;;;;;5075961;28;20503;-51
2023/03/09 08:06:11;;;;;;;1.50;0.30;;;12.10;99.90;;;;;;5088149;28;20420;-52
2023/03/09 08:08:38;;;;;;;1.80;0.30;;;12.20;99.90;;;;;;5077562;28;20448;-53
2023/03/09 08:11:06;;;;;;;1.30;0.22;;;12.20;99.90;;;;;;5083702;28;20433;-52
2023/03/09 08:13:35;;;;;;;0.80;0.30;;;12.20;99.90;;;;;;5074239;28;20416;-50
2023/03/09 08:16:05;;;;;;;0.70;0.30;;;12.20;99.90;;;;;;5088736;28;20429;-52
2023/03/09 08:18:32;;;;;;;0.70;0.25;;;12.10;99.90;;;;;;5085061;28;20433;-51
2023/03/09 08:21:05;;;;;;;0.90;0.30;;;12.30;99.90;;;;;;5089510;28;20425;-51
2023/03/09 08:23:34;;;;;;;1.20;0.40;;;12.40;99.90;;;;;;5076073;28;20466;-47
2023/03/09 08:26:01;;;;;;;0.70;0.30;;;12.50;99.90;;;;;;5088399;28;20957;-52
2023/03/09 08:28:29;;;;;;;1.52;0.30;;;12.50;99.90;;;;;;5077922;28;20852;-53
2023/03/09 08:30:57;;;;;;;1.60;0.30;;;12.60;99.90;;;;;;5091339;28;20479;-52
2023/03/09 08:33:25;;;;;;;0.50;0.20;;;12.70;99.90;;;;;;5078355;28;20428;-54
2023/03/09 08:35:52;;;;;;;1.60;0.20;;;12.70;99.90;;;;;;5088112;28;20414;-47
2023/03/09 08:38:19;;;;;;;1.20;0.30;;;12.60;99.90;;;;;;5076765;28;20418;-45
2023/03/09 08:40:47;;;;;;;0.90;0.30;;;12.50;99.90;;;;;;5090489;28;20728;-49
2023/03/09 08:43:14;;;;;;;1.10;0.20;;;12.50;99.90;;;;;;5089044;28;20432;-51
2023/03/09 08:45:41;;;;;;;1.80;0.20;;;12.40;99.90;;;;;;5075487;28;20427;-51
2023/03/09 08:48:10;;;;;;;0.80;0.20;;;12.40;99.90;;;;;;5091376;28;20883;-49
2023/03/09 08:50:40;;;;;;;0.70;0.20;;;12.40;99.90;;;;;;5084951;28;20858;-51
2023/03/09 08:53:08;;;;;;;0.35;0.10;;;12.40;99.90;;;;;;5081137;28;20409;-49
2023/03/09 08:55:37;;;;;;;1.10;0.20;;;12.50;99.90;;;;;;5091617;28;20425;-49
2023/03/09 08:58:05;;;;;;;1.13;0.30;;;12.70;99.90;;;;;;5074642;28;20423;-47
2023/03/09 09:00:34;;;;;;;0.70;0.20;;;12.60;99.90;;;;;;5086482;28;20840;-51
2023/03/09 09:03:02;;;;;;;0.70;0.30;;;12.80;99.90;;;;;;5080014;28;20432;-51
2023/03/09 09:05:31;;;;;;;0.50;0.20;;;12.90;99.90;;;;;;5078085;28;20427;-50
2023/03/09 09:07:59;;;;;;;0.70;0.20;;;13.00;99.90;;;;;;5087242;28;20441;-52
2023/03/09 09:10:28;;;;;;;0.70;0.30;;;13.00;99.90;;;;;;5077198;28;20430;-52
2023/03/09 09:12:56;;;;;;;0.63;0.20;;;12.60;99.90;;;;;;5088780;28;20406;-49
2023/03/09 09:15:23;;;;;;;0.97;0.30;;;12.60;99.90;;;;;;5091277;28;20856;-52
2023/03/09 09:17:53;;;;;;;0.80;0.20;;;12.60;99.90;;;;;;5074188;28;20419;-45
2023/03/09 09:20:21;;;;;;;1.30;0.20;;;12.50;99.90;;;;;;5088415;28;20717;-48
2023/03/09 09:22:51;;;;;;;0.60;0.20;;;12.40;99.90;;;;;;5079830;28;20440;-49
2023/03/09 09:25:19;;;;;;;1.10;0.20;;;12.20;99.90;;;;;;5079366;28;20438;-50
2023/03/09 09:27:49;;;;;;;0.50;0.20;;;11.90;99.90;;;;;;5085726;28;20414;-49
2023/03/09 09:30:18;;;;;;;0.68;0.20;;;11.70;99.90;;;;;;5074132;28;20849;-52
2023/03/09 09:32:46;;;;;;;1.00;0.20;;;11.70;99.90;;;;;;5081914;28;20419;-49
2023/03/09 09:35:14;;;;;;;1.00;0.27;;;11.90;99.90;;;;;;5082707;28;20741;-50
2023/03/09 09:37:42;;;;;;;0.60;0.20;;;12.00;99.90;;;;;;5075030;28;20419;-49
2023/03/09 09:40:17;;;;;;;0.50;0.20;;;12.10;99.90;;;;;;5087272;28;20720;-49
2023/03/09 09:42:45;;;;;;;1.35;0.30;;;12.10;99.90;;;;;;5078564;28;20466;-49
2023/03/09 09:45:34;;;;;;;0.53;0.20;;;12.20;99.90;;;;;;5080048;28;20427;-50
2023/03/09 09:48:06;;;;;;;2.30;0.22;;;12.40;99.90;;;;;;5086790;28;20504;-46
2023/03/09 09:50:50;;;;;;;0.65;0.20;;;12.50;99.90;;;;;;5076657;28;20479;-47
2023/03/09 09:53:30;;;;;;;1.00;0.20;;;12.50;99.90;;;;;;5079356;28;20420;-50
2023/03/09 09:56:02;;;;;;;0.68;0.22;;;12.30;99.90;;;;;;5089058;28;20452;-49
2023/03/09 09:58:38;;;;;;;0.50;0.20;;;12.20;99.90;;;;;;5085905;28;20427;-51
2023/03/09 10:01:18;;;;;;;0.82;0.30;;;12.10;99.90;;;;;;5084047;28;20815;-48
2023/03/09 10:03:50;;;;;;;0.50;0.20;;;12.20;99.90;;;;;;5095966;28;20445;-52
2023/03/09 10:06:20;;;;;;;0.50;0.20;;;12.30;99.90;;;;;;5078134;28;20496;-49
2023/03/09 10:08:52;;;;;;;0.80;0.20;;;12.40;99.90;;;;;;5084825;28;20803;-46
2023/03/09 10:11:26;;;;;;;0.60;0.30;;;12.30;99.90;;;;;;5085955;28;20418;-51
2023/03/09 10:14:00;;;;;;;0.95;0.30;;;12.30;99.90;;;;;;5080715;28;20424;-48
2023/03/09 10:16:31;;;;;;;0.52;0.30;;;12.50;99.90;;;;;;5078967;28;20695;-50
2023/03/09 10:19:02;;;;;;;0.70;0.20;;;12.60;99.90;;;;;;5083108;28;20435;-46
2023/03/09 10:21:34;;;;;;;0.40;0.20;;;12.60;99.90;;;;;;5084486;28;20544;-49
2023/03/09 10:24:21;;;;;;;0.50;0.20;;;12.60;99.90;;;;;;5074292;28;20739;-50
2023/03/09 10:26:54;;;;;;;0.60;0.20;;;12.50;99.90;;;;;;5092195;28;20422;-49
2023/03/09 10:29:40;;;;;;;0.40;0.20;;;12.50;99.90;;;;;;5089063;28;20863;-48
2023/03/09 10:32:16;;;;;;;1.57;0.23;;;12.70;99.90;;;;;;5080305;28;20433;-50
2023/03/09 10:34:54;;;;;;;0.50;0.20;;;12.90;99.90;;;;;;5078148;28;20839;-50
2023/03/09 10:37:24;;;;;;;1.33;0.20;;;12.90;99.90;;;;;;5080599;28;20501;-49
2023/03/09 10:39:51;;;;;;;0.50;0.20;;;13.00;99.90;;;;;;5072953;28;20434;-52
2023/03/09 10:42:22;;;;;;;0.50;0.20;;;13.00;99.90;;;;;;5074965;28;20426;-53
2023/03/09 10:45:05;;;;;;;0.70;0.20;;;13.20;99.90;;;;;;5070456;28;20497;-54
2023/03/09 10:47:55;;;;;;;0.65;0.30;;;13.30;99.90;;;;;;5076457;28;20425;-48
2023/03/09 10:50:24;;;;;;;0.60;0.20;;;13.70;99.90;;;;;;5092693;28;20426;-50
2023/03/09 10:52:51;;;;;;;0.40;0.20;;;13.50;99.90;;;;;;5089456;28;20422;-50
2023/03/09 10:55:42;;;;;;;0.77;0.20;;;13.70;99.90;;;;;;5079792;28;20429;-48
2023/03/09 10:58:17;;;;;;;1.10;0.20;;;13.90;99.90;;;;;;5090504;28;20451;-48
2023/03/09 11:00:57;;;;;;;0.50;0.20;;;14.20;99.90;;;;;;5093985;28;20593;-49
2023/03/09 11:03:26;;;;;;;0.90;0.20;;;14.20;99.90;;;;;;5091037;28;20441;-54
2023/03/09 11:05:53;;;;;;;0.80;0.20;;;14.10;99.90;;;;;;5090419;28;20434;-50
2023/03/09 11:08:25;;;;;;;0.50;0.20;;;14.20;99.90;;;;;;5077307;28;20799;-56
2023/03/09 11:11:02;;;;;;;0.60;0.30;;;14.40;99.90;;;;;;5074474;28;20790;-53
2023/03/09 11:13:31;;;;;;;1.20;0.30;;;14.30;99.90;;;;;;5070530;28;20725;-52
2023/03/09 11:16:13;;;;;;;0.90;0.20;;;14.30;99.90;;;;;;5070041;28;20423;-50
2023/03/09 11:18:40;;;;;;;1.83;0.20;;;14.30;99.90;;;;;;5071369;28;20434;-53
2023/03/09 11:21:08;;;;;;;1.33;0.30;;;14.60;99.90;;;;;;5071792;28;20422;-50
2023/03/09 11:23:40;;;;;;;1.07;0.37;;;15.00;99.90;;;;;;5070495;28;20428;-55
2023/03/09 11:26:17;;;;;;;0.55;0.30;;;15.00;99.90;;;;;;5068916;28;20473;-54
2023/03/09 11:28:58;;;;;;;1.50;0.30;;;14.50;99.90;;;;;;5079779;28;20422;-58
2023/03/09 11:31:26;;;;;;;1.25;0.30;;;14.60;99.90;;;;;;5087342;28;20429;-58
2023/03/09 11:33:57;;;;;;;1.02;0.30;;;14.90;99.90;;;;;;5071062;28;20423;-58
2023/03/09 11:36:30;;;;;;;1.10;0.30;;;15.00;99.90;;;;;;5071532;28;20438;-58
2023/03/09 11:38:57;;;;;;;1.90;0.40;;;15.10;99.90;;;;;;5071693;28;20519;-58
2023/03/09 11:41:28;;;;;;;1.48;0.40;;;15.40;99.90;;;;;;5071557;28;20434;-57
2023/03/09 11:44:01;;;;;;;0.60;0.20;;;15.50;99.90;;;;;;5072365;28;20436;-56
2023/03/09 11:46:30;;;;;;;0.60;0.20;;;15.40;99.90;;;;;;5070460;28;20515;-57
2023/03/09 11:49:07;;;;;;;0.60;0.20;;;15.40;99.90;;;;;;5069709;28;20438;-56
2023/03/09 11:51:39;;;;;;;1.02;0.30;;;15.30;99.90;;;;;;5069014;28;20502;-58
2023/03/09 11:54:18;;;;;;;0.50;0.20;;;15.40;99.90;;;;;;5071764;28;20507;-57
2023/03/09 11:56:46;;;;;;;0.80;0.30;;;15.50;99.90;;;;;;5069763;28;20510;-56
2023/03/09 11:59:19;;;;;;;1.00;0.20;;;15.40;99.90;;;;;;5071910;28;20890;-57
2023/03/09 12:01:52;;;;;;;0.50;0.20;;;15.20;99.90;;;;;;5071435;28;20419;-57
2023/03/09 12:04:20;;;;;;;0.43;0.20;;;15.00;99.90;;;;;;5069980;28;20519;-55
2023/03/09 12:06:53;;;;;;;1.77;0.20;;;15.10;99.90;;;;;;5067774;28;20868;-55
2023/03/09 12:09:29;;;;;;;0.60;0.20;;;15.00;99.90;;;;;;5070475;28;20427;-56
2023/03/09 12:12:01;;;;;;;0.70;0.30;;;14.90;99.90;;;;;;5068989;28;20811;-56
2023/03/09 12:14:34;;;;;;;1.63;0.20;;;15.00;99.90;;;;;;5085740;28;20428;-56
2023/03/09 12:17:04;;;;;;;1.30;0.30;;;15.20;99.90;;;;;;5090649;28;20725;-56
2023/03/09 12:19:34;;;;;;;1.60;0.30;;;15.40;99.90;;;;;;5089973;28;20433;-56
2023/03/09 12:22:06;;;;;;;0.50;0.20;;;15.30;99.90;;;;;;5089884;28;20533;-56
2023/03/09 12:24:38;;;;;;;0.50;0.30;;;15.50;99.90;;;;;;5088608;28;20437;-55
2023/03/09 12:27:16;;;;;;;0.80;0.25;;;15.90;99.90;;;;;;5069679;28;21019;-56
2023/03/09 12:29:51;;;;;;;1.20;0.20;;;16.00;99.90;;;;;;5070934;28;20458;-55
2023/03/09 12:32:35;;;;;;;0.90;0.20;;;15.50;99.90;;;;;;5071795;28;20827;-57
2023/03/09 12:35:11;;;;;;;0.75;0.20;;;15.50;99.90;;;;;;5084650;28;20443;-57
2023/03/09 12:38:06;;;;;;;0.70;0.30;;;15.60;99.90;;;;;;5071085;28;20520;-57
2023/03/09 12:40:39;;;;;;;0.70;0.20;;;15.70;99.90;;;;;;5078367;28;20456;-53
2023/03/09 12:43:52;;;;;;;0.60;0.20;;;15.60;99.90;;;;;;5091858;28;20810;-57
2023/03/09 12:46:51;;;;;;;0.57;0.20;;;15.20;99.90;;;;;;5091632;28;20443;-57
2023/03/09 12:49:21;;;;;;;0.60;0.22;;;15.30;99.90;;;;;;5089561;28;20433;-57
2023/03/09 12:52:21;;;;;;;1.17;0.30;;;15.40;99.90;;;;;;5090085;28;20491;-57
2023/03/09 12:55:00;;;;;;;1.02;0.20;;;15.20;99.90;;;;;;5084296;28;20436;-56
2023/03/09 12:57:29;;;;;;;0.80;0.30;;;15.10;99.90;;;;;;5079664;28;20429;-54
2023/03/09 13:00:29;;;;;;;0.60;0.20;;;14.90;99.90;;;;;;5088207;28;20523;-52
2023/03/09 13:03:06;;;;;;;0.82;0.30;;;14.70;99.90;;;;;;5074971;28;20902;-55